Time;durP1;ratioP1;P1;durP2;ratioP2;P2;SDS_P1;SDS_P2;PMS_P1;PMS_P2;Temp;Humidity;BMP_temperature;BMP_pressure;BME280_temperature;BME280_humidity;BME280_pressure;Samples;Min_cycle;Max_cycle;Signal;HPM_P1;HPM_P2
2022/02/11 00:00:53;;;;;;;8.85;6.00;;;;;;;;;;5073132;28;20228;-67
2022/02/11 00:08:29;;;;;;;7.70;5.55;;;;;;;;;;5073096;28;20224;-67
2022/02/11 00:10:58;;;;;;;5.60;4.95;;;;;;;;;;5072976;28;20220;-67
2022/02/11 00:13:25;;;;;;;9.40;5.50;;;;;;;;;;5073751;28;20223;-67
2022/02/11 00:15:54;;;;;;;5.18;4.68;;;;;;;;;;5073076;28;20196;-66
2022/02/11 00:18:22;;;;;;;8.80;5.80;;;;;;;;;;5073828;28;20201;-67
2022/02/11 00:20:50;;;;;;;8.65;5.90;;;;;;;;;;5073443;28;20217;-66
2022/02/11 00:23:17;;;;;;;8.73;5.28;;;;;;;;;;5073415;28;20679;-67
2022/02/11 00:25:49;;;;;;;11.90;4.70;;;;;;;;;;5073341;28;20200;-66
2022/02/11 00:31:30;;;;;;;9.95;6.25;;;;;;;;;;5073555;28;20269;-67
2022/02/11 00:33:59;;;;;;;6.00;4.72;;;;;;;;;;5073447;28;20230;-67
2022/02/11 00:36:31;;;;;;;8.18;5.03;;;;;;;;;;5073185;28;20285;-68
2022/02/11 00:39:14;;;;;;;7.50;5.50;;;;;;;;;;5073582;28;20690;-68
2022/02/11 01:03:59;;;;;;;7.90;4.80;;;;;;;;;;5077034;28;20370;-67
2022/02/11 01:06:27;;;;;;;8.13;5.18;;;;;;;;;;5077108;28;20264;-66
2022/02/11 01:08:54;;;;;;;9.32;4.57;;;;;;;;;;5076567;28;20235;-67
2022/02/11 01:11:27;;;;;;;14.48;7.10;;;;;;;;;;5076242;28;20692;-66
2022/02/11 01:13:54;;;;;;;6.85;6.15;;;;;;;;;;5076778;28;20183;-66
2022/02/11 01:16:29;;;;;;;7.93;6.35;;;;;;;;;;5076426;28;20291;-67
2022/02/11 01:19:03;;;;;;;9.48;5.85;;;;;;;;;;5076519;28;20251;-67
2022/02/11 01:21:39;;;;;;;10.90;6.80;;;;;;;;;;5076482;28;20182;-69
2022/02/11 01:24:19;;;;;;;11.10;6.43;;;;;;;;;;5075894;28;20222;-67
2022/02/11 01:26:55;;;;;;;8.73;6.80;;;;;;;;;;5075712;28;20188;-67
2022/02/11 01:29:54;;;;;;;10.80;7.32;;;;;;;;;;5076086;28;20191;-66
2022/02/11 01:32:36;;;;;;;8.55;6.30;;;;;;;;;;5076088;28;20249;-66
2022/02/11 01:35:13;;;;;;;10.30;6.97;;;;;;;;;;5075968;28;20180;-66
2022/02/11 01:37:52;;;;;;;8.50;6.65;;;;;;;;;;5075802;28;20187;-66
2022/02/11 01:41:04;;;;;;;10.13;6.40;;;;;;;;;;5076076;28;20271;-66
2022/02/11 01:46:31;;;;;;;15.35;8.35;;;;;;;;;;5049660;28;20560;-66
2022/02/11 01:49:22;;;;;;;13.63;8.30;;;;;;;;;;5075260;28;20228;-67
2022/02/11 01:51:56;;;;;;;20.67;8.25;;;;;;;;;;5075095;28;20213;-67
2022/02/11 01:54:40;;;;;;;13.82;9.10;;;;;;;;;;5075160;28;20196;-67
2022/02/11 01:57:14;;;;;;;18.40;9.38;;;;;;;;;;5075730;28;20188;-67
2022/02/11 02:00:13;;;;;;;19.08;9.10;;;;;;;;;;5075051;28;20187;-67
2022/02/11 02:14:14;;;;;;;18.50;11.13;;;;;;;;;;5074916;28;20231;-67
2022/02/11 02:20:07;;;;;;;19.02;12.30;;;;;;;;;;5075348;28;20340;-67
2022/02/11 02:22:59;;;;;;;14.88;11.23;;;;;;;;;;5075015;28;20206;-67
2022/02/11 02:25:33;;;;;;;19.50;13.65;;;;;;;;;;5075670;28;20187;-68
2022/02/11 02:28:32;;;;;;;19.35;12.52;;;;;;;;;;5074401;28;20187;-67
2022/02/11 02:43:26;;;;;;;29.00;13.43;;;;;;;;;;5150725;27;20253;-67
2022/02/11 02:56:38;;;;;;;15.52;11.20;;;;;;;;;;5152332;27;20264;-67
2022/02/11 03:02:09;;;;;;;18.85;12.30;;;;;;;;;;5151687;27;20200;-66
2022/02/11 03:35:26;;;;;;;21.52;10.18;;;;;;;;;;5151536;27;20236;-67
2022/02/11 03:49:01;;;;;;;10.10;8.15;;;;;;;;;;5137352;27;20181;-66
2022/02/11 04:55:21;;;;;;;9.95;7.90;;;;;;;;;;5136102;27;20634;-68
2022/02/11 05:00:33;;;;;;;18.40;9.95;;;;;;;;;;5135806;27;20246;-67
2022/02/11 05:03:00;;;;;;;15.68;10.30;;;;;;;;;;5136389;27;20548;-67
2022/02/11 05:05:29;;;;;;;13.65;9.95;;;;;;;;;;5135898;27;20209;-67
2022/02/11 05:08:01;;;;;;;14.77;10.80;;;;;;;;;;5136030;27;20193;-68
2022/02/11 05:10:28;;;;;;;14.75;11.18;;;;;;;;;;5136273;27;20186;-67
2022/02/11 05:12:56;;;;;;;9.48;7.95;;;;;;;;;;5135921;27;20235;-67
2022/02/11 05:15:24;;;;;;;15.27;9.60;;;;;;;;;;5135495;27;20274;-67
2022/02/11 05:17:51;;;;;;;8.82;7.35;;;;;;;;;;5135482;27;20199;-67
2022/02/11 05:20:18;;;;;;;15.02;8.70;;;;;;;;;;5135387;27;20720;-67
2022/02/11 05:22:47;;;;;;;11.55;7.57;;;;;;;;;;5135279;27;20197;-67
2022/02/11 05:25:14;;;;;;;11.57;8.13;;;;;;;;;;5136377;27;20304;-66
2022/02/11 05:27:41;;;;;;;15.40;10.40;;;;;;;;;;5135273;27;20292;-66
2022/02/11 05:30:09;;;;;;;14.05;9.45;;;;;;;;;;5135148;27;20199;-66
2022/02/11 05:32:36;;;;;;;14.90;8.85;;;;;;;;;;5135103;27;20280;-65
2022/02/11 05:35:04;;;;;;;11.43;9.60;;;;;;;;;;5134819;27;20267;-65
2022/02/11 05:37:31;;;;;;;11.10;9.50;;;;;;;;;;5134184;27;20221;-66
2022/02/11 05:40:00;;;;;;;8.73;7.53;;;;;;;;;;5134314;27;20441;-66
2022/02/11 05:42:28;;;;;;;10.10;8.23;;;;;;;;;;5135312;27;20604;-66
2022/02/11 05:44:55;;;;;;;16.73;8.95;;;;;;;;;;5134803;27;20239;-66
2022/02/11 05:47:22;;;;;;;9.23;7.97;;;;;;;;;;5134323;27;20197;-67
2022/02/11 05:49:50;;;;;;;19.35;9.18;;;;;;;;;;5135023;27;20229;-67
2022/02/11 05:52:17;;;;;;;11.77;10.27;;;;;;;;;;5134877;27;20703;-67
2022/02/11 05:54:44;;;;;;;8.80;6.88;;;;;;;;;;5134440;27;20292;-66
2022/02/11 05:57:13;;;;;;;13.60;8.85;;;;;;;;;;5134384;27;20222;-67
2022/02/11 05:59:40;;;;;;;22.95;10.10;;;;;;;;;;5134902;27;20708;-67
2022/02/11 06:02:07;;;;;;;18.55;10.25;;;;;;;;;;5134599;27;20222;-67
2022/02/11 06:04:34;;;;;;;10.45;7.85;;;;;;;;;;5134205;27;20215;-66
2022/02/11 06:07:02;;;;;;;10.82;6.70;;;;;;;;;;5134798;27;20283;-67
2022/02/11 06:09:29;;;;;;;9.27;5.90;;;;;;;;;;5134066;27;20210;-67
2022/02/11 06:11:56;;;;;;;16.90;6.85;;;;;;;;;;5133683;27;20199;-67
2022/02/11 06:14:25;;;;;;;7.53;6.88;;;;;;;;;;5134081;27;20226;-66
2022/02/11 06:16:53;;;;;;;9.57;6.72;;;;;;;;;;5134145;27;20214;-67
2022/02/11 06:19:20;;;;;;;12.20;5.85;;;;;;;;;;5134334;27;20218;-67
2022/02/11 06:21:48;;;;;;;10.18;5.45;;;;;;;;;;5134861;27;20641;-69
2022/02/11 06:24:15;;;;;;;10.73;5.72;;;;;;;;;;5134497;27;20190;-67
2022/02/11 06:26:42;;;;;;;5.47;3.25;;;;;;;;;;5134674;27;20240;-67
2022/02/11 06:29:11;;;;;;;13.55;5.15;;;;;;;;;;5134612;27;20192;-66
2022/02/11 06:31:39;;;;;;;10.60;5.68;;;;;;;;;;5134254;27;20204;-66
2022/02/11 06:34:07;;;;;;;9.60;2.95;;;;;;;;;;5134636;27;20282;-67
2022/02/11 06:36:34;;;;;;;5.32;2.50;;;;;;;;;;5134623;27;20605;-67
2022/02/11 06:39:02;;;;;;;8.40;2.15;;;;;;;;;;5135123;27;20230;-67
2022/02/11 06:41:29;;;;;;;8.00;2.72;;;;;;;;;;5134123;27;20199;-67
2022/02/11 06:43:56;;;;;;;8.68;3.15;;;;;;;;;;5134117;27;20197;-68
2022/02/11 06:46:24;;;;;;;8.30;1.88;;;;;;;;;;5134457;27;20206;-67
2022/02/11 06:48:52;;;;;;;9.75;3.20;;;;;;;;;;5134399;27;20195;-66
2022/02/11 06:51:19;;;;;;;6.25;2.90;;;;;;;;;;5134376;27;20287;-67
2022/02/11 06:53:46;;;;;;;15.02;3.60;;;;;;;;;;5134649;27;20662;-66
2022/02/11 06:56:14;;;;;;;7.20;2.30;;;;;;;;;;5134765;27;20218;-67
2022/02/11 06:58:41;;;;;;;4.80;2.45;;;;;;;;;;5134683;27;20191;-67
2022/02/11 07:01:08;;;;;;;10.07;3.55;;;;;;;;;;5134352;27;20243;-66
2022/02/11 07:03:35;;;;;;;8.35;2.03;;;;;;;;;;5134506;27;20239;-67
2022/02/11 07:06:04;;;;;;;4.10;2.17;;;;;;;;;;5133887;27;20202;-68
2022/02/11 07:08:31;;;;;;;8.82;3.40;;;;;;;;;;5134231;27;20286;-67
2022/02/11 07:10:59;;;;;;;8.68;2.42;;;;;;;;;;5133895;27;20220;-67
2022/02/11 07:13:26;;;;;;;6.68;2.20;;;;;;;;;;5134354;27;20234;-66
2022/02/11 07:15:53;;;;;;;7.07;2.25;;;;;;;;;;5133732;27;20210;-66
2022/02/11 07:18:20;;;;;;;3.90;2.03;;;;;;;;;;5133885;27;20199;-66
2022/02/11 07:20:49;;;;;;;6.63;3.15;;;;;;;;;;5133834;27;20196;-66
2022/02/11 07:23:17;;;;;;;10.65;2.28;;;;;;;;;;5137073;27;20188;-67
2022/02/11 07:25:45;;;;;;;7.18;3.03;;;;;;;;;;5137907;27;20262;-66
2022/02/11 07:28:12;;;;;;;8.95;2.70;;;;;;;;;;5137890;27;20200;-66
2022/02/11 07:30:40;;;;;;;8.80;2.70;;;;;;;;;;5137762;27;20190;-66
2022/02/11 07:33:07;;;;;;;11.90;2.40;;;;;;;;;;5137996;27;20200;-66
2022/02/11 07:35:34;;;;;;;7.70;3.10;;;;;;;;;;5137525;27;20348;-68
2022/02/11 07:38:01;;;;;;;8.02;3.38;;;;;;;;;;5137693;27;20660;-65
2022/02/11 07:40:31;;;;;;;10.48;4.18;;;;;;;;;;5137264;27;20197;-67
2022/02/11 07:42:58;;;;;;;10.32;2.78;;;;;;;;;;5137954;27;20285;-66
2022/02/11 07:45:27;;;;;;;5.95;3.55;;;;;;;;;;5137687;27;20195;-67
2022/02/11 07:47:55;;;;;;;3.17;2.00;;;;;;;;;;5137125;27;20209;-68
2022/02/11 07:50:22;;;;;;;18.20;3.60;;;;;;;;;;5137216;27;20193;-66
2022/02/11 07:52:50;;;;;;;11.23;2.80;;;;;;;;;;5137956;27;20204;-66
2022/02/11 07:55:17;;;;;;;4.53;1.95;;;;;;;;;;5137390;27;20268;-66
2022/02/11 07:57:45;;;;;;;6.50;2.50;;;;;;;;;;5136863;27;20305;-66
2022/02/11 08:00:14;;;;;;;9.07;2.40;;;;;;;;;;5136987;27;20279;-67
2022/02/11 08:02:42;;;;;;;14.35;2.55;;;;;;;;;;5137160;27;20201;-68
2022/02/11 08:05:10;;;;;;;9.93;2.90;;;;;;;;;;5137419;27;20207;-66
2022/02/11 08:07:37;;;;;;;7.22;2.50;;;;;;;;;;5137610;27;20587;-67
2022/02/11 08:10:04;;;;;;;6.60;2.05;;;;;;;;;;5137064;27;20199;-66
2022/02/11 08:12:34;;;;;;;5.50;2.20;;;;;;;;;;5136757;27;20229;-66
2022/02/11 08:15:03;;;;;;;6.30;3.05;;;;;;;;;;5137329;27;20271;-68
2022/02/11 08:17:31;;;;;;;14.93;3.30;;;;;;;;;;5137301;27;20577;-66
2022/02/11 08:19:58;;;;;;;9.35;2.65;;;;;;;;;;5136561;27;20198;-66
2022/02/11 08:22:25;;;;;;;9.65;2.92;;;;;;;;;;5136510;27;20194;-66
2022/02/11 08:24:52;;;;;;;6.60;3.05;;;;;;;;;;5136495;27;20198;-66
2022/02/11 08:27:20;;;;;;;6.78;2.58;;;;;;;;;;5136758;27;20197;-66
2022/02/11 08:29:54;;;;;;;11.43;3.05;;;;;;;;;;5136469;27;20310;-66
2022/02/11 08:32:25;;;;;;;6.80;3.15;;;;;;;;;;5136984;27;20188;-66
2022/02/11 08:34:52;;;;;;;8.20;2.42;;;;;;;;;;5136654;27;20281;-65
2022/02/11 08:37:21;;;;;;;22.90;3.30;;;;;;;;;;5136492;27;20200;-66
2022/02/11 08:39:52;;;;;;;9.35;2.78;;;;;;;;;;5136153;27;20219;-66
2022/02/11 08:42:20;;;;;;;7.10;2.83;;;;;;;;;;5136710;27;20220;-67
2022/02/11 08:44:47;;;;;;;12.23;3.17;;;;;;;;;;5136079;27;20190;-66
2022/02/11 08:47:16;;;;;;;6.82;2.10;;;;;;;;;;5136347;27;20706;-67
2022/02/11 08:49:45;;;;;;;19.75;2.97;;;;;;;;;;5136556;27;20255;-67
2022/02/11 08:52:12;;;;;;;12.32;3.10;;;;;;;;;;5135994;27;20300;-67
2022/02/11 08:54:39;;;;;;;9.02;2.50;;;;;;;;;;5135939;27;20280;-67
2022/02/11 08:57:07;;;;;;;10.00;2.45;;;;;;;;;;5136493;27;20275;-66
2022/02/11 08:59:34;;;;;;;15.05;4.68;;;;;;;;;;5136377;27;20292;-66
2022/02/11 09:02:07;;;;;;;20.52;2.97;;;;;;;;;;5136167;27;20240;-67
2022/02/11 09:04:36;;;;;;;2.92;2.25;;;;;;;;;;5135899;27;20206;-66
2022/02/11 09:07:05;;;;;;;13.48;3.58;;;;;;;;;;5135945;27;20198;-67
2022/02/11 09:09:33;;;;;;;5.45;2.85;;;;;;;;;;5135969;27;20190;-66
2022/02/11 09:12:00;;;;;;;9.52;2.53;;;;;;;;;;5135128;27;20250;-66
2022/02/11 09:14:27;;;;;;;16.13;4.22;;;;;;;;;;5135691;27;20224;-66
2022/02/11 09:16:55;;;;;;;14.77;2.90;;;;;;;;;;5135104;27;20221;-66
2022/02/11 09:19:22;;;;;;;13.70;2.78;;;;;;;;;;5135958;27;20651;-67
2022/02/11 09:21:49;;;;;;;8.32;2.45;;;;;;;;;;5135686;27;20205;-66
2022/02/11 09:24:18;;;;;;;8.63;3.20;;;;;;;;;;5135759;27;20195;-67
2022/02/11 09:26:45;;;;;;;13.82;3.22;;;;;;;;;;5135322;27;20199;-67
2022/02/11 09:29:12;;;;;;;12.73;2.45;;;;;;;;;;5135637;27;20595;-67
2022/02/11 09:31:41;;;;;;;11.73;2.72;;;;;;;;;;5135338;27;20614;-67
2022/02/11 09:34:12;;;;;;;11.55;2.78;;;;;;;;;;5135218;27;20249;-67
2022/02/11 09:36:40;;;;;;;20.80;3.30;;;;;;;;;;5135525;27;20231;-66
2022/02/11 09:39:09;;;;;;;5.78;3.83;;;;;;;;;;5135304;27;20262;-67
2022/02/11 09:41:38;;;;;;;8.73;3.05;;;;;;;;;;5135375;27;20205;-66
2022/02/11 09:44:07;;;;;;;9.13;3.10;;;;;;;;;;5134895;27;20648;-66
2022/02/11 09:46:35;;;;;;;12.45;2.95;;;;;;;;;;5135051;27;20238;-67
2022/02/11 09:49:03;;;;;;;6.28;2.45;;;;;;;;;;5134859;27;20716;-67
2022/02/11 09:51:30;;;;;;;11.75;3.22;;;;;;;;;;5135227;27;20195;-67
2022/02/11 09:53:57;;;;;;;3.92;2.85;;;;;;;;;;5134835;27;20254;-67
2022/02/11 09:56:25;;;;;;;6.40;2.55;;;;;;;;;;5135566;27;20717;-67
2022/02/11 09:58:54;;;;;;;6.55;2.20;;;;;;;;;;5134731;27;20239;-67
2022/02/11 10:01:22;;;;;;;9.40;2.58;;;;;;;;;;5135159;27;20195;-68
2022/02/11 10:04:07;;;;;;;10.10;3.00;;;;;;;;;;5135067;27;20243;-67
2022/02/11 10:06:35;;;;;;;20.85;3.92;;;;;;;;;;5135217;27;20395;-67
2022/02/11 10:09:03;;;;;;;11.48;2.40;;;;;;;;;;5134774;27;20221;-67
2022/02/11 10:11:30;;;;;;;15.45;3.38;;;;;;;;;;5134533;27;20670;-67
2022/02/11 10:14:17;;;;;;;10.57;3.00;;;;;;;;;;5134852;27;20195;-67
2022/02/11 10:16:53;;;;;;;7.57;2.40;;;;;;;;;;5134753;27;20209;-67
2022/02/11 10:19:35;;;;;;;14.02;3.67;;;;;;;;;;5134861;27;20187;-67
2022/02/11 10:22:09;;;;;;;5.40;3.40;;;;;;;;;;5134814;27;20194;-67
2022/02/11 10:24:36;;;;;;;8.85;3.20;;;;;;;;;;5134618;27;20605;-67
2022/02/11 10:27:16;;;;;;;9.63;3.33;;;;;;;;;;5134562;27;20230;-67
2022/02/11 10:29:44;;;;;;;6.40;2.75;;;;;;;;;;5134292;27;20223;-67
2022/02/11 10:32:12;;;;;;;5.78;3.30;;;;;;;;;;5134216;27;20290;-67
2022/02/11 10:34:40;;;;;;;10.68;2.97;;;;;;;;;;5134166;27;20279;-66
2022/02/11 10:37:10;;;;;;;6.85;2.40;;;;;;;;;;5134422;27;20206;-67
2022/02/11 10:39:38;;;;;;;9.38;2.92;;;;;;;;;;5134771;27;20243;-67
2022/02/11 10:42:08;;;;;;;5.90;2.40;;;;;;;;;;5134019;27;20731;-67
2022/02/11 10:44:37;;;;;;;9.38;2.90;;;;;;;;;;5134418;27;20195;-67
2022/02/11 10:47:07;;;;;;;14.07;2.38;;;;;;;;;;5134618;27;20199;-67
2022/02/11 10:49:35;;;;;;;7.47;2.53;;;;;;;;;;5134914;27;20190;-68
2022/02/11 10:52:13;;;;;;;10.88;3.28;;;;;;;;;;5134705;27;20547;-67
2022/02/11 10:54:40;;;;;;;7.68;2.60;;;;;;;;;;5133997;27;20248;-67
2022/02/11 10:57:09;;;;;;;11.48;3.28;;;;;;;;;;5136310;27;20323;-67
2022/02/11 10:59:37;;;;;;;13.48;2.70;;;;;;;;;;5138627;27;20197;-69
2022/02/11 11:02:07;;;;;;;5.28;2.55;;;;;;;;;;5138488;27;20620;-67
2022/02/11 11:04:35;;;;;;;12.75;3.90;;;;;;;;;;5138124;27;20203;-67
2022/02/11 11:07:03;;;;;;;7.63;3.00;;;;;;;;;;5137928;27;20293;-66
2022/02/11 11:09:31;;;;;;;12.25;4.20;;;;;;;;;;5138314;27;20191;-66
2022/02/11 11:12:00;;;;;;;7.05;3.40;;;;;;;;;;5138355;27;20638;-67
2022/02/11 11:14:28;;;;;;;16.95;3.03;;;;;;;;;;5137873;27;20246;-67
2022/02/11 11:16:58;;;;;;;15.13;2.83;;;;;;;;;;5137776;27;20215;-67
2022/02/11 11:19:28;;;;;;;17.42;2.40;;;;;;;;;;5138642;27;20232;-67
2022/02/11 11:24:53;;;;;;;7.25;2.55;;;;;;;;;;5091220;27;20500;-67
2022/02/11 11:27:39;;;;;;;1.90;1.70;;;;;;;;;;5090986;28;20248;-67
2022/02/11 11:30:26;;;;;;;7.78;2.10;;;;;;;;;;5090704;28;20638;-68
2022/02/11 11:33:11;;;;;;;7.70;2.78;;;;;;;;;;5090584;28;20284;-68
2022/02/11 11:35:40;;;;;;;11.55;3.10;;;;;;;;;;5090506;28;20208;-68
2022/02/11 11:38:11;;;;;;;16.63;2.92;;;;;;;;;;5090802;28;20194;-68
2022/02/11 11:40:40;;;;;;;11.63;3.33;;;;;;;;;;5090725;28;20210;-69
2022/02/11 11:43:17;;;;;;;11.75;3.88;;;;;;;;;;5090607;28;20394;-68
2022/02/11 11:45:44;;;;;;;8.75;2.78;;;;;;;;;;5090386;28;20188;-68
2022/02/11 11:48:14;;;;;;;15.02;4.30;;;;;;;;;;5090544;28;20300;-69
2022/02/11 11:50:41;;;;;;;10.52;2.85;;;;;;;;;;5090559;28;20662;-69
2022/02/11 11:53:25;;;;;;;18.08;3.53;;;;;;;;;;5090633;28;20551;-69
2022/02/11 11:55:53;;;;;;;13.70;3.00;;;;;;;;;;5091383;28;20212;-69
2022/02/11 11:58:32;;;;;;;3.00;2.53;;;;;;;;;;5090203;28;20740;-70
2022/02/11 12:01:02;;;;;;;7.22;2.45;;;;;;;;;;5090134;28;20185;-69
2022/02/11 12:03:34;;;;;;;10.82;2.20;;;;;;;;;;5090717;28;20221;-69
2022/02/11 12:06:19;;;;;;;4.28;2.72;;;;;;;;;;5090673;28;20269;-69
2022/02/11 12:08:48;;;;;;;3.40;2.05;;;;;;;;;;5090206;28;20553;-69
2022/02/11 12:11:16;;;;;;;4.40;2.20;;;;;;;;;;5090342;28;20637;-70
2022/02/11 12:13:44;;;;;;;7.03;2.20;;;;;;;;;;5090138;28;20228;-69
2022/02/11 12:16:11;;;;;;;10.60;2.30;;;;;;;;;;5090213;28;20196;-70
2022/02/11 12:18:40;;;;;;;9.13;2.35;;;;;;;;;;5089998;28;20603;-69
2022/02/11 12:21:08;;;;;;;18.42;3.47;;;;;;;;;;5090061;28;20223;-68
2022/02/11 12:29:06;;;;;;;5.07;2.40;;;;;;;;;;5089889;28;20184;-69
2022/02/11 12:31:33;;;;;;;10.10;3.63;;;;;;;;;;5089520;28;20226;-69
2022/02/11 12:34:13;;;;;;;7.30;2.78;;;;;;;;;;5088881;28;20245;-68
2022/02/11 12:36:40;;;;;;;6.15;2.05;;;;;;;;;;5076220;28;20194;-68
2022/02/11 12:39:08;;;;;;;14.25;3.35;;;;;;;;;;5076391;28;20196;-69
2022/02/11 12:41:47;;;;;;;6.65;2.70;;;;;;;;;;5076834;28;20194;-68
2022/02/11 12:44:24;;;;;;;16.33;3.40;;;;;;;;;;5075963;28;20603;-68
2022/02/11 12:46:51;;;;;;;8.77;2.40;;;;;;;;;;5076124;28;20600;-68
2022/02/11 12:49:19;;;;;;;8.88;3.17;;;;;;;;;;5075690;28;20195;-69
2022/02/11 12:51:49;;;;;;;9.25;3.25;;;;;;;;;;5075582;28;20196;-68
2022/02/11 12:54:16;;;;;;;9.57;2.45;;;;;;;;;;5076007;28;20264;-73
2022/02/11 12:56:44;;;;;;;17.15;2.85;;;;;;;;;;5075897;28;20197;-74
2022/02/11 12:59:13;;;;;;;21.38;3.47;;;;;;;;;;5075866;28;20200;-73
2022/02/11 13:01:41;;;;;;;11.30;2.35;;;;;;;;;;5075700;28;20199;-74
2022/02/11 13:04:08;;;;;;;12.27;2.70;;;;;;;;;;5075171;28;20353;-74
2022/02/11 13:06:35;;;;;;;4.95;2.38;;;;;;;;;;5075139;28;20611;-74
2022/02/11 13:09:03;;;;;;;5.18;2.50;;;;;;;;;;5075038;28;20243;-74
2022/02/11 13:11:31;;;;;;;5.10;3.05;;;;;;;;;;5073765;28;20285;-74
2022/02/11 13:14:02;;;;;;;8.38;2.10;;;;;;;;;;5074382;28;20196;-74
2022/02/11 13:16:30;;;;;;;15.75;3.40;;;;;;;;;;5075368;28;20286;-75
2022/02/11 13:18:58;;;;;;;11.18;4.05;;;;;;;;;;5074765;28;20240;-74
2022/02/11 13:21:27;;;;;;;5.97;2.85;;;;;;;;;;5074373;28;20232;-74
2022/02/11 13:23:54;;;;;;;13.80;2.95;;;;;;;;;;5075237;28;20228;-75
2022/02/11 13:26:26;;;;;;;6.22;2.75;;;;;;;;;;5073894;28;20283;-74
2022/02/11 13:28:55;;;;;;;10.35;2.92;;;;;;;;;;5074814;28;20184;-74
2022/02/11 13:31:22;;;;;;;6.40;2.10;;;;;;;;;;5075031;28;20231;-74
2022/02/11 13:34:04;;;;;;;4.25;1.60;;;;;;;;;;5074863;28;20243;-73
2022/02/11 13:36:40;;;;;;;4.50;2.10;;;;;;;;;;5075353;28;20279;-73
2022/02/11 13:39:07;;;;;;;7.95;2.30;;;;;;;;;;5075096;28;20183;-72
2022/02/11 13:41:38;;;;;;;17.20;4.13;;;;;;;;;;5074913;28;20205;-73
2022/02/11 13:44:11;;;;;;;7.55;2.83;;;;;;;;;;5074739;28;20214;-73
2022/02/11 13:46:39;;;;;;;3.35;2.00;;;;;;;;;;5073493;28;20184;-73
2022/02/11 13:49:08;;;;;;;13.13;2.58;;;;;;;;;;5074838;28;20201;-72
2022/02/11 13:51:36;;;;;;;7.82;2.03;;;;;;;;;;5074232;28;20232;-72
2022/02/11 13:54:10;;;;;;;9.07;1.92;;;;;;;;;;5074863;28;20203;-72
2022/02/11 13:56:38;;;;;;;16.25;5.15;;;;;;;;;;5074925;28;20271;-72
2022/02/11 13:59:07;;;;;;;7.93;2.63;;;;;;;;;;5074538;28;20698;-72
2022/02/11 14:01:35;;;;;;;6.38;2.17;;;;;;;;;;5074549;28;20220;-72
2022/02/11 14:04:03;;;;;;;5.00;1.70;;;;;;;;;;5074000;28;20272;-72
2022/02/11 14:06:36;;;;;;;6.38;3.55;;;;;;;;;;5073620;28;20201;-71
2022/02/11 14:09:05;;;;;;;8.98;3.38;;;;;;;;;;5074351;28;20183;-71
2022/02/11 14:11:35;;;;;;;3.42;2.63;;;;;;;;;;5074308;28;20204;-71
2022/02/11 14:14:11;;;;;;;4.38;1.90;;;;;;;;;;5074038;28;20291;-71
2022/02/11 14:16:38;;;;;;;9.32;2.00;;;;;;;;;;5073500;28;20721;-72
2022/02/11 14:19:06;;;;;;;4.50;2.47;;;;;;;;;;5073585;28;20192;-71
2022/02/11 14:21:35;;;;;;;6.47;2.20;;;;;;;;;;5073728;28;20293;-71
2022/02/11 14:24:02;;;;;;;8.98;1.92;;;;;;;;;;5072884;28;20232;-69
2022/02/11 14:26:30;;;;;;;8.13;2.78;;;;;;;;;;5073224;28;20288;-68
2022/02/11 14:28:57;;;;;;;11.15;2.45;;;;;;;;;;5073242;28;20205;-69
2022/02/11 14:31:25;;;;;;;8.45;3.70;;;;;;;;;;5073905;28;20284;-68
2022/02/11 14:33:52;;;;;;;9.90;4.25;;;;;;;;;;5072934;28;20684;-68
2022/02/11 14:36:19;;;;;;;6.55;2.00;;;;;;;;;;5073612;28;20256;-68
2022/02/11 14:38:48;;;;;;;11.02;2.95;;;;;;;;;;5073587;28;20284;-68
2022/02/11 14:44:01;;;;;;;8.57;1.92;;;;;;;;;;5073790;28;20594;-69
2022/02/11 14:46:28;;;;;;;4.20;2.08;;;;;;;;;;5073790;28;20286;-69
2022/02/11 14:48:55;;;;;;;11.25;2.50;;;;;;;;;;5073840;28;20197;-68
2022/02/11 14:51:26;;;;;;;12.88;2.50;;;;;;;;;;5073522;28;20195;-68
2022/02/11 14:53:56;;;;;;;23.05;2.70;;;;;;;;;;5073228;28;20211;-69
2022/02/11 14:56:25;;;;;;;7.88;1.95;;;;;;;;;;5073262;28;20250;-69
2022/02/11 14:58:52;;;;;;;12.07;4.00;;;;;;;;;;5073415;28;20205;-68
2022/02/11 15:01:19;;;;;;;13.60;3.25;;;;;;;;;;5073321;28;20200;-69
2022/02/11 15:03:47;;;;;;;8.77;2.95;;;;;;;;;;5072869;28;20618;-69
2022/02/11 15:06:14;;;;;;;11.73;3.22;;;;;;;;;;5073015;28;20287;-68
2022/02/11 15:08:43;;;;;;;11.20;2.45;;;;;;;;;;5073451;28;20651;-68
2022/02/11 15:11:13;;;;;;;8.20;2.63;;;;;;;;;;5073438;28;20254;-68
2022/02/11 15:13:45;;;;;;;12.68;3.50;;;;;;;;;;5072739;28;20196;-68
2022/02/11 15:16:12;;;;;;;8.50;2.63;;;;;;;;;;5074278;28;20535;-68
2022/02/11 15:18:42;;;;;;;5.15;2.28;;;;;;;;;;5073343;28;20279;-68
2022/02/11 15:21:09;;;;;;;7.75;2.47;;;;;;;;;;5073351;28;20569;-68
2022/02/11 15:23:37;;;;;;;8.05;2.50;;;;;;;;;;5072987;28;20239;-68
2022/02/11 15:26:06;;;;;;;7.47;1.90;;;;;;;;;;5073067;28;20286;-69
2022/02/11 15:28:35;;;;;;;5.20;2.03;;;;;;;;;;5073813;28;20210;-69
2022/02/11 15:31:11;;;;;;;8.70;2.72;;;;;;;;;;5072963;28;20204;-67
2022/02/11 15:33:40;;;;;;;5.25;2.30;;;;;;;;;;5073282;28;20185;-67
2022/02/11 15:36:08;;;;;;;7.28;2.25;;;;;;;;;;5073128;28;20196;-68
2022/02/11 15:38:35;;;;;;;4.13;2.97;;;;;;;;;;5073260;28;20223;-68
2022/02/11 15:41:03;;;;;;;6.28;2.75;;;;;;;;;;5073481;28;20261;-69
2022/02/11 15:43:30;;;;;;;5.53;2.00;;;;;;;;;;5072837;28;20725;-68
2022/02/11 15:46:01;;;;;;;6.45;2.13;;;;;;;;;;5073153;28;20655;-68
2022/02/11 15:48:28;;;;;;;9.13;1.95;;;;;;;;;;5072610;28;20192;-69
2022/02/11 15:50:55;;;;;;;6.90;3.15;;;;;;;;;;5073168;28;20286;-70
2022/02/11 15:53:22;;;;;;;15.52;3.47;;;;;;;;;;5073363;28;20647;-70
2022/02/11 15:55:50;;;;;;;11.77;2.63;;;;;;;;;;5073427;28;20641;-71
2022/02/11 15:58:17;;;;;;;11.52;2.75;;;;;;;;;;5073299;28;20684;-71
2022/02/11 16:00:51;;;;;;;12.52;2.20;;;;;;;;;;5072063;28;20196;-71
2022/02/11 16:03:23;;;;;;;11.50;3.15;;;;;;;;;;5073108;28;20184;-71
2022/02/11 16:05:51;;;;;;;11.07;2.72;;;;;;;;;;5073001;28;20223;-70
2022/02/11 16:08:18;;;;;;;7.85;3.92;;;;;;;;;;5073445;28;20200;-71
2022/02/11 16:10:46;;;;;;;11.98;2.85;;;;;;;;;;5074997;28;20203;-72
2022/02/11 16:13:13;;;;;;;7.00;2.45;;;;;;;;;;5076502;28;20232;-71
2022/02/11 16:15:41;;;;;;;6.20;2.30;;;;;;;;;;5076237;28;20243;-72
2022/02/11 16:18:14;;;;;;;12.70;2.63;;;;;;;;;;5076717;28;20197;-72
2022/02/11 16:20:44;;;;;;;6.95;2.33;;;;;;;;;;5076428;28;20302;-71
2022/02/11 16:23:14;;;;;;;5.53;2.60;;;;;;;;;;5076537;28;20233;-69
2022/02/11 16:25:42;;;;;;;9.50;2.95;;;;;;;;;;5076660;28;20209;-70
2022/02/11 16:28:10;;;;;;;7.05;3.15;;;;;;;;;;5076179;28;20628;-71
2022/02/11 16:30:38;;;;;;;8.25;2.67;;;;;;;;;;5075795;28;20245;-71
2022/02/11 16:33:05;;;;;;;11.20;3.50;;;;;;;;;;5076208;28;20711;-71
2022/02/11 16:35:33;;;;;;;7.75;2.65;;;;;;;;;;5076129;28;20204;-71
2022/02/11 16:38:02;;;;;;;11.65;2.40;;;;;;;;;;5076170;28;20277;-70
2022/02/11 16:40:31;;;;;;;9.93;2.40;;;;;;;;;;5076106;28;20200;-70
2022/02/11 16:42:59;;;;;;;7.55;2.75;;;;;;;;;;5076804;28;20523;-70
2022/02/11 16:45:26;;;;;;;5.88;3.03;;;;;;;;;;5076330;28;20219;-70
2022/02/11 16:47:54;;;;;;;12.65;2.75;;;;;;;;;;5075697;28;20241;-71
2022/02/11 16:50:21;;;;;;;10.85;3.30;;;;;;;;;;5075554;28;20250;-70
2022/02/11 16:52:48;;;;;;;5.35;2.85;;;;;;;;;;5075986;28;20205;-70
2022/02/11 16:55:17;;;;;;;14.73;3.30;;;;;;;;;;5075948;28;20673;-71
2022/02/11 16:57:44;;;;;;;4.88;2.70;;;;;;;;;;5075752;28;20197;-71
2022/02/11 17:00:13;;;;;;;10.27;2.45;;;;;;;;;;5075724;28;20196;-72
2022/02/11 17:02:40;;;;;;;6.97;2.63;;;;;;;;;;5075674;28;20198;-70
2022/02/11 17:05:08;;;;;;;9.15;3.67;;;;;;;;;;5076335;28;20216;-70
2022/02/11 17:07:35;;;;;;;6.78;2.95;;;;;;;;;;5075226;28;20230;-71
2022/02/11 17:10:03;;;;;;;11.35;4.80;;;;;;;;;;5075488;28;20314;-71
2022/02/11 17:12:33;;;;;;;12.73;3.10;;;;;;;;;;5075261;28;20237;-71
2022/02/11 17:15:01;;;;;;;8.95;3.30;;;;;;;;;;5075425;28;20211;-70
2022/02/11 17:17:28;;;;;;;11.68;3.55;;;;;;;;;;5075384;28;20196;-70
2022/02/11 17:19:55;;;;;;;9.13;3.70;;;;;;;;;;5075429;28;20302;-70
2022/02/11 17:22:23;;;;;;;8.25;3.10;;;;;;;;;;5075158;28;20745;-69
2022/02/11 17:24:50;;;;;;;11.27;3.67;;;;;;;;;;5075055;28;20232;-70
2022/02/11 17:27:18;;;;;;;12.63;3.33;;;;;;;;;;5075395;28;20250;-70
2022/02/11 17:29:46;;;;;;;8.30;2.90;;;;;;;;;;5075010;28;20202;-70
2022/02/11 17:32:14;;;;;;;9.20;3.13;;;;;;;;;;5075645;28;20676;-70
2022/02/11 17:34:41;;;;;;;8.85;4.47;;;;;;;;;;5075441;28;20214;-70
2022/02/11 17:37:09;;;;;;;7.80;2.83;;;;;;;;;;5075256;28;20192;-71
2022/02/11 17:39:37;;;;;;;6.47;2.75;;;;;;;;;;5074899;28;20700;-70
2022/02/11 17:42:05;;;;;;;9.70;4.60;;;;;;;;;;5074775;28;20257;-70
2022/02/11 17:44:32;;;;;;;9.52;4.47;;;;;;;;;;5074335;28;20195;-70
2022/02/11 17:47:01;;;;;;;11.60;5.28;;;;;;;;;;5075245;28;20232;-71
2022/02/11 17:49:28;;;;;;;12.43;5.40;;;;;;;;;;5075018;28;20280;-71
2022/02/11 17:51:56;;;;;;;20.85;8.98;;;;;;;;;;5074569;28;20197;-70
2022/02/11 17:54:23;;;;;;;10.32;5.75;;;;;;;;;;5075093;28;20624;-71
2022/02/11 17:56:51;;;;;;;19.95;7.90;;;;;;;;;;5074786;28;20196;-70
2022/02/11 17:59:18;;;;;;;10.68;5.28;;;;;;;;;;5074708;28;20707;-70
2022/02/11 18:01:46;;;;;;;12.38;4.53;;;;;;;;;;5075097;28;20593;-70
2022/02/11 18:04:15;;;;;;;10.02;6.65;;;;;;;;;;5074972;28;20236;-71